P/v Golden Gate — WDE5665 — position and weather

sailwx.info

Track history (hours):
 
Tides and Currents Weather Stations Pressure Air Temp Water Temp Dewpoint Dewpoint Depression Visibility Wind Speed Wind Dir Waves Ship Positions

P/v Golden Gate

Owner: San Francisco Bar Pilots Benevolent and Protective, San Francisco, CA. More information available from US FCC via Universal Licensing System and Coast Guard Vessel Documentation Center.

Last reported at 2015-Aug-03 02:33 UTC. Time now 2015-Aug-03 02:34 UTC.
Position N 37°48' W 122°22'.

Length 23 m; draft 2 m.

Type: Pilot. MMSI: 367370010.

Date/timePositionNaut miles runAvg speedWind from/ knotsBaromVisibWave heightAir tempDewpointWater temp
2015-Aug-03 02:33N 37°48' W 122°22'1 1.2
2015-Aug-03 01:34N 37°49' W 122°20'3 2.9
2015-Aug-03 00:33N 37°48' W 122°24'0 0.0
2015-Aug-02 23:34N 37°48' W 122°24'0 0.0
2015-Aug-02 22:34N 37°48' W 122°24'4 3.6
2015-Aug-02 21:33N 37°45' W 122°21'4 3.6
2015-Aug-02 20:33N 37°48' W 122°24'0 0.0
2015-Aug-02 19:33N 37°48' W 122°24'3 3.4
2015-Aug-02 18:33N 37°48' W 122°20'3 3.0
2015-Aug-02 17:33N 37°48' W 122°23'0 0.3
2015-Aug-02 16:33N 37°48' W 122°24'3 3.4
2015-Aug-02 15:33N 37°49' W 122°28'3 3.2
2015-Aug-02 14:33N 37°48' W 122°24'0 0.0
2015-Aug-02 13:33N 37°48' W 122°24'0 0.0
2015-Aug-02 12:33N 37°48' W 122°24'6 5.9
2015-Aug-02 11:33N 37°48' W 122°31'6 5.9
2015-Aug-02 10:34N 37°48' W 122°24'0 0.0
2015-Aug-02 09:34N 37°48' W 122°24'0 0.0
2015-Aug-02 08:34N 37°48' W 122°24'0 0.0
2015-Aug-02 07:34N 37°48' W 122°24'0 0.0
2015-Aug-02 06:34N 37°48' W 122°24'3 2.9
2015-Aug-02 05:34N 37°49' W 122°20'6 5.9
2015-Aug-02 04:33N 37°50' W 122°27'4 3.5
2015-Aug-02 03:34N 37°48' W 122°24'0 0.0
2015-Aug-02 02:33N 37°48' W 122°24'0 0.0
2015-Aug-02 01:34N 37°48' W 122°24'0 0.0
2015-Aug-02 00:33N 37°48' W 122°24'0 0.0
2015-Aug-01 23:34N 37°48' W 122°24'0 0.0
2015-Aug-01 22:33N 37°48' W 122°24'0 0.0
2015-Aug-01 21:33N 37°48' W 122°24'0 0.0
2015-Aug-01 20:33N 37°48' W 122°24'3 3.2
2015-Aug-01 19:33N 37°46' W 122°21'3 3.2
2015-Aug-01 18:33N 37°48' W 122°24'1 1.2
2015-Aug-01 17:33N 37°49' W 122°25'5 4.9
2015-Aug-01 16:33N 37°48' W 122°19'3 3.0
2015-Aug-01 15:34N 37°45' W 122°20'5 4.5
2015-Aug-01 14:33N 37°48' W 122°24'4 3.6
2015-Aug-01 13:33N 37°49' W 122°19'4 3.6
2015-Aug-01 12:33N 37°48' W 122°24'3 3.4
2015-Aug-01 11:33N 37°48' W 122°20'2 2.1
2015-Aug-01 10:33N 37°48' W 122°22'1 1.3
2015-Aug-01 09:33N 37°48' W 122°24'0 0.0
2015-Aug-01 08:33N 37°48' W 122°24'0 0.0
2015-Aug-01 07:33N 37°48' W 122°24'0 0.0
2015-Aug-01 06:34N 37°48' W 122°24'1 1.5
2015-Aug-01 05:34N 37°47' W 122°22'4 4.2
2015-Aug-01 04:34N 37°44' W 122°19'6 5.6
2015-Aug-01 03:34N 37°48' W 122°24'0 0.0
2015-Aug-01 02:33N 37°48' W 122°24'1 1.0
2015-Aug-01 01:34N 37°48' W 122°23'1 1.0
2015-Aug-01 00:33N 37°48' W 122°24'0 0.0
2015-Jul-31 23:33N 37°48' W 122°24'0 0.0
2015-Jul-31 22:33N 37°48' W 122°24'0 0.0
2015-Jul-31 21:33N 37°48' W 122°24'0 0.0
2015-Jul-31 20:33N 37°48' W 122°24'5 4.8
2015-Jul-31 19:34N 37°44' W 122°20'5 4.8
2015-Jul-31 18:33N 37°48' W 122°24'1 0.6
2015-Jul-31 17:34N 37°48' W 122°23'1 0.6
2015-Jul-31 16:33N 37°48' W 122°24'0 0.0
2015-Jul-31 15:33N 37°48' W 122°24'1 0.6
2015-Jul-31 14:33N 37°48' W 122°23'1 0.6
2015-Jul-31 13:34N 37°48' W 122°24'0 0.0
2015-Jul-31 12:33N 37°48' W 122°24'0 0.0
2015-Jul-31 11:34N 37°48' W 122°24'0 0.0
2015-Jul-31 10:33N 37°48' W 122°24'0 0.0
2015-Jul-31 09:33N 37°48' W 122°24'0 0.0
2015-Jul-31 08:33N 37°48' W 122°24'0 0.0
2015-Jul-31 07:33N 37°48' W 122°24'0 0.0
2015-Jul-31 06:34N 37°48' W 122°24'0 0.0
2015-Jul-31 05:33N 37°48' W 122°24'0 0.0
2015-Jul-31 04:33N 37°48' W 122°24'0 0.0
2015-Jul-31 03:33N 37°48' W 122°24'4 3.6
2015-Jul-31 02:33N 37°45' W 122°21'4 3.6
2015-Jul-31 01:33N 37°48' W 122°24'0 0.0
2015-Jul-31 00:33N 37°48' W 122°24'0 0.0
2015-Jul-30 23:33N 37°48' W 122°24'0 0.0
2015-Jul-30 22:33N 37°48' W 122°24'0 0.0
2015-Jul-30 21:33N 37°48' W 122°24'0 0.0
2015-Jul-30 20:33N 37°48' W 122°24'3 2.7
2015-Jul-30 19:34N 37°49' W 122°27'3 2.7
2015-Jul-30 18:34N 37°48' W 122°24'0 0.0
2015-Jul-30 17:33N 37°48' W 122°24'1 1.1
2015-Jul-30 16:34N 37°49' W 122°23'1 1.1
2015-Jul-30 15:33N 37°48' W 122°24'0 0.4
2015-Jul-30 14:34N 37°48' W 122°23'0 0.2
2015-Jul-30 13:34N 37°48' W 122°23'0 0.3
2015-Jul-30 12:34N 37°48' W 122°24'0 0.0
2015-Jul-30 11:33N 37°48' W 122°24'4 3.8
2015-Jul-30 10:33N 37°49' W 122°28'3 2.7
2015-Jul-30 09:34N 37°49' W 122°25'1 1.5
2015-Jul-30 08:34N 37°48' W 122°24'0 0.0
2015-Jul-30 07:34N 37°48' W 122°24'4 3.9
2015-Jul-30 06:34N 37°45' W 122°21'4 3.9
2015-Jul-30 05:34N 37°48' W 122°24'0 0.0
2015-Jul-30 04:34N 37°48' W 122°24'0 0.0
2015-Jul-30 03:33N 37°48' W 122°24'0 0.0
2015-Jul-30 02:33N 37°48' W 122°24'5 5.0
2015-Jul-30 01:33N 37°44' W 122°20'5 5.0
2015-Jul-30 00:33N 37°48' W 122°24'0 0.0
2015-Jul-29 23:33N 37°48' W 122°24'0 0.0
2015-Jul-29 22:34N 37°48' W 122°24'0 0.0
2015-Jul-29 21:33N 37°48' W 122°24'0 0.0
2015-Jul-29 20:33N 37°48' W 122°24'2 2.4
2015-Jul-29 19:33N 37°47' W 122°21'4 3.6
2015-Jul-29 18:33N 37°49' W 122°25'7 7.5
2015-Jul-29 17:33N 37°47' W 122°34'8 7.9
2015-Jul-29 16:33N 37°51' W 122°25'3 3.0
2015-Jul-29 15:34N 37°48' W 122°24'5 5.5
2015-Jul-29 14:34N 37°43' W 122°20'5 5.0
2015-Jul-29 13:34N 37°48' W 122°22'2 1.5
2015-Jul-29 12:33N 37°48' W 122°24'1 0.7
2015-Jul-29 11:33N 37°48' W 122°23'1 0.7
2015-Jul-29 10:33N 37°48' W 122°24'0 0.0
2015-Jul-29 09:33N 37°48' W 122°24'3 2.6
2015-Jul-29 08:34N 37°48' W 122°21'3 2.6
2015-Jul-29 07:33N 37°48' W 122°24'0 0.0
2015-Jul-29 06:33N 37°48' W 122°24'0 0.0
2015-Jul-29 05:33N 37°48' W 122°24'0 0.0
2015-Jul-29 04:33N 37°48' W 122°24'8 7.6
2015-Jul-29 03:33N 37°47' W 122°33'1010.4
2015-Jul-29 02:33N 37°48' W 122°20'1414.4
2015-Jul-29 01:33N 37°46' W 122°38'1211.6
2015-Jul-29 00:33N 37°48' W 122°24'3 3.4
2015-Jul-28 23:34N 37°48' W 122°20'5 5.2
2015-Jul-28 22:34N 37°51' W 122°25'3 3.2
2015-Jul-28 21:34N 37°48' W 122°24'1 1.2
2015-Jul-28 20:34N 37°47' W 122°23'1 1.2
2015-Jul-28 19:34N 37°48' W 122°24'0 0.0
2015-Jul-28 18:34N 37°48' W 122°24'1 1.2
2015-Jul-28 17:33N 37°49' W 122°25'1 1.2
2015-Jul-28 16:33N 37°48' W 122°24'1 1.2
2015-Jul-28 15:33N 37°47' W 122°23'1 1.2
2015-Jul-28 14:33N 37°48' W 122°24'0 0.0
2015-Jul-28 13:33N 37°48' W 122°24'5 5.4
2015-Jul-28 12:34N 37°44' W 122°20'5 5.4
2015-Jul-28 11:33N 37°48' W 122°24'0 0.0
2015-Jul-28 10:33N 37°48' W 122°24'6 5.6
2015-Jul-28 09:33N 37°43' W 122°20'7 6.7
2015-Jul-28 08:34N 37°49' W 122°25'1 1.2
2015-Jul-28 07:34N 37°48' W 122°24'0 0.0
2015-Jul-28 06:34N 37°48' W 122°24'0 0.0
2015-Jul-28 05:34N 37°48' W 122°24'0 0.0
2015-Jul-28 04:34N 37°48' W 122°24'1010.5
2015-Jul-28 03:33N 37°46' W 122°37'1212.0
2015-Jul-28 02:33N 37°48' W 122°22'3 3.3
2015-Jul-28 01:33N 37°45' W 122°21'4 3.9
2015-Jul-28 00:33N 37°48' W 122°24'9 9.5
2015-Jul-27 23:34N 37°46' W 122°36'1211.7
2015-Jul-27 22:34N 37°47' W 122°21'1 1.4
2015-Jul-27 21:33N 37°48' W 122°20'3 3.3
2015-Jul-27 20:33N 37°48' W 122°24'4 3.8
2015-Jul-27 19:34N 37°45' W 122°21'4 3.8
2015-Jul-27 18:33N 37°48' W 122°24'0 0.0
2015-Jul-27 17:33N 37°48' W 122°24'0 0.0
2015-Jul-27 16:33N 37°48' W 122°24'0 0.0
2015-Jul-27 15:33N 37°48' W 122°24'0 0.0
2015-Jul-27 14:33N 37°48' W 122°24'1 1.2
2015-Jul-27 13:33N 37°49' W 122°25'1 1.2
2015-Jul-27 12:33N 37°48' W 122°24'3 2.5
2015-Jul-27 11:33N 37°46' W 122°21'3 2.5
2015-Jul-27 10:33N 37°48' W 122°24'0 0.0
2015-Jul-27 09:33N 37°48' W 122°24'3 3.1
2015-Jul-27 08:34N 37°46' W 122°21'3 3.2
2015-Jul-27 07:33N 37°48' W 122°24'0 0.0
2015-Jul-27 06:33N 37°48' W 122°24'0 0.0
2015-Jul-27 05:34N 37°48' W 122°24'0 0.0
2015-Jul-27 04:34N 37°48' W 122°24'2 2.4
2015-Jul-27 03:33N 37°48' W 122°21'1 1.5
2015-Jul-27 02:33N 37°46' W 122°21'2 1.9
2015-Jul-27 01:33N 37°48' W 122°21'1 0.9
2015-Jul-27 00:33N 37°48' W 122°23'0 0.4
2015-Jul-26 23:34N 37°48' W 122°23'1 0.6
2015-Jul-26 22:33N 37°48' W 122°24'0 0.0
2015-Jul-26 21:33N 37°48' W 122°24'0 0.2
2015-Jul-26 20:33N 37°48' W 122°24'0 0.2
2015-Jul-26 19:33N 37°48' W 122°24'0 0.0
2015-Jul-26 18:34N 37°48' W 122°24'3 3.4
2015-Jul-26 17:34N 37°48' W 122°20'4 4.2
2015-Jul-26 16:34N 37°44' W 122°21'5 5.0
2015-Jul-26 15:33N 37°48' W 122°24'0 0.0
2015-Jul-26 14:33N 37°48' W 122°24'5 4.9
2015-Jul-26 13:33N 37°44' W 122°20'5 4.6
2015-Jul-26 12:33N 37°49' W 122°20'3 2.9
2015-Jul-26 11:33N 37°48' W 122°24'3 3.3
2015-Jul-26 10:34N 37°46' W 122°21'3 3.3
2015-Jul-26 09:34N 37°48' W 122°24'0 0.0
2015-Jul-26 08:33N 37°48' W 122°24'2 1.8
2015-Jul-26 07:34N 37°47' W 122°22'2 2.4
2015-Jul-26 06:33N 37°45' W 122°20'4 4.1
2015-Jul-26 05:33N 37°48' W 122°24'0 0.0
2015-Jul-26 04:33N 37°48' W 122°24'0 0.0
2015-Jul-26 03:33N 37°48' W 122°24'3 2.7
2015-Jul-26 02:34N 37°47' W 122°21'3 2.7
2015-Jul-26 01:34N 37°48' W 122°24'0 0.0
2015-Jul-26 00:33N 37°48' W 122°24'4 4.5
2015-Jul-25 23:34N 37°48' W 122°18'2 2.5
2015-Jul-25 22:34N 37°46' W 122°20'3 3.1
2015-Jul-25 21:33N 37°48' W 122°23'2 2.0
2015-Jul-25 20:34N 37°48' W 122°21'3 2.5
2015-Jul-25 19:33N 37°48' W 122°24'3 3.2
2015-Jul-25 18:34N 37°49' W 122°20'3 3.2
2015-Jul-25 17:34N 37°48' W 122°24'0 0.0
2015-Jul-25 16:34N 37°48' W 122°24'0 0.0
2015-Jul-25 15:33N 37°48' W 122°24'4 3.7
2015-Jul-25 14:33N 37°49' W 122°19'4 3.7
2015-Jul-25 13:33N 37°48' W 122°24'3 2.6
2015-Jul-25 12:34N 37°46' W 122°21'1 0.7
2015-Jul-25 11:34N 37°47' W 122°22'2 1.9
2015-Jul-25 10:33N 37°48' W 122°24'0 0.0
2015-Jul-25 09:33N 37°48' W 122°24'0 0.0
2015-Jul-25 08:33N 37°48' W 122°24'1 1.2
2015-Jul-25 07:34N 37°49' W 122°25'3 3.1
2015-Jul-25 06:34N 37°49' W 122°29'4 4.0
2015-Jul-25 05:33N 37°48' W 122°24'1 0.6
2015-Jul-25 04:34N 37°48' W 122°23'1 0.6
2015-Jul-25 03:32N 37°48' W 122°24'0 0.0
2015-Jul-25 02:33N 37°48' W 122°24'0 0.0
2015-Jul-25 01:33N 37°48' W 122°24'0 0.0
2015-Jul-25 00:34N 37°48' W 122°24'7 6.7
2015-Jul-24 23:34N 37°42' W 122°19'7 6.6
2015-Jul-24 22:32N 37°48' W 122°24'8 8.0
2015-Jul-24 21:32N 37°47' W 122°34'8 8.3
2015-Jul-24 20:33N 37°48' W 122°24'0 0.2
2015-Jul-24 19:33N 37°48' W 122°24'0 0.0
2015-Jul-24 18:33N 37°48' W 122°24'3 2.9
2015-Jul-24 17:34N 37°47' W 122°20'3 2.9
2015-Jul-24 16:33N 37°48' W 122°24'1 0.6
2015-Jul-24 15:34N 37°49' W 122°24'4 3.9
2015-Jul-24 14:33N 37°46' W 122°21'2 2.1
2015-Jul-24 13:34N 37°48' W 122°21'3 2.6
2015-Jul-24 12:33N 37°48' W 122°24'0 0.0
2015-Jul-24 11:33N 37°48' W 122°24'4 3.8
2015-Jul-24 10:33N 37°49' W 122°19'6 6.4
2015-Jul-24 09:34N 37°43' W 122°20'6 6.3
2015-Jul-24 08:33N 37°48' W 122°24'2 2.4
2015-Jul-24 07:34N 37°48' W 122°21'2 2.4
2015-Jul-24 06:33N 37°48' W 122°24'0 0.0
2015-Jul-24 05:33N 37°48' W 122°24'4 3.6
2015-Jul-24 04:34N 37°48' W 122°19'2 2.2
2015-Jul-24 03:34N 37°46' W 122°21'2 1.5
2015-Jul-24 02:33N 37°45' W 122°20'  
Track history (hours):
 
Tides and Currents Weather Stations Pressure Air Temp Water Temp Dewpoint Dewpoint Depression Visibility Wind Speed Wind Dir Waves Ship Positions

P/v Golden Gate

Owner: San Francisco Bar Pilots Benevolent and Protective, San Francisco, CA. More information available from US FCC via Universal Licensing System and Coast Guard Vessel Documentation Center.

Last reported at 2015-Aug-03 02:33 UTC. Time now 2015-Aug-03 02:34 UTC.
Position N 37°48' W 122°22'.

Length 23 m; draft 2 m.

Type: Pilot. MMSI: 367370010.

Date/timePositionNaut miles runAvg speedWind from/ knotsBaromVisibWave heightAir tempDewpointWater temp
2015-Aug-03 02:33N 37°48' W 122°22'1 1.2
2015-Aug-03 01:34N 37°49' W 122°20'3 2.9
2015-Aug-03 00:33N 37°48' W 122°24'0 0.0
2015-Aug-02 23:34N 37°48' W 122°24'0 0.0
2015-Aug-02 22:34N 37°48' W 122°24'4 3.6
2015-Aug-02 21:33N 37°45' W 122°21'4 3.6
2015-Aug-02 20:33N 37°48' W 122°24'0 0.0
2015-Aug-02 19:33N 37°48' W 122°24'3 3.4
2015-Aug-02 18:33N 37°48' W 122°20'3 3.0
2015-Aug-02 17:33N 37°48' W 122°23'0 0.3
2015-Aug-02 16:33N 37°48' W 122°24'3 3.4
2015-Aug-02 15:33N 37°49' W 122°28'3 3.2
2015-Aug-02 14:33N 37°48' W 122°24'0 0.0
2015-Aug-02 13:33N 37°48' W 122°24'0 0.0
2015-Aug-02 12:33N 37°48' W 122°24'6 5.9
2015-Aug-02 11:33N 37°48' W 122°31'6 5.9
2015-Aug-02 10:34N 37°48' W 122°24'0 0.0
2015-Aug-02 09:34N 37°48' W 122°24'0 0.0
2015-Aug-02 08:34N 37°48' W 122°24'0 0.0
2015-Aug-02 07:34N 37°48' W 122°24'0 0.0
2015-Aug-02 06:34N 37°48' W 122°24'3 2.9
2015-Aug-02 05:34N 37°49' W 122°20'6 5.9
2015-Aug-02 04:33N 37°50' W 122°27'4 3.5
2015-Aug-02 03:34N 37°48' W 122°24'0 0.0
2015-Aug-02 02:33N 37°48' W 122°24'0 0.0
2015-Aug-02 01:34N 37°48' W 122°24'0 0.0
2015-Aug-02 00:33N 37°48' W 122°24'0 0.0
2015-Aug-01 23:34N 37°48' W 122°24'0 0.0
2015-Aug-01 22:33N 37°48' W 122°24'0 0.0
2015-Aug-01 21:33N 37°48' W 122°24'0 0.0
2015-Aug-01 20:33N 37°48' W 122°24'3 3.2
2015-Aug-01 19:33N 37°46' W 122°21'3 3.2
2015-Aug-01 18:33N 37°48' W 122°24'1 1.2
2015-Aug-01 17:33N 37°49' W 122°25'5 4.9
2015-Aug-01 16:33N 37°48' W 122°19'3 3.0
2015-Aug-01 15:34N 37°45' W 122°20'5 4.5
2015-Aug-01 14:33N 37°48' W 122°24'4 3.6
2015-Aug-01 13:33N 37°49' W 122°19'4 3.6
2015-Aug-01 12:33N 37°48' W 122°24'3 3.4
2015-Aug-01 11:33N 37°48' W 122°20'2 2.1
2015-Aug-01 10:33N 37°48' W 122°22'1 1.3
2015-Aug-01 09:33N 37°48' W 122°24'0 0.0
2015-Aug-01 08:33N 37°48' W 122°24'0 0.0
2015-Aug-01 07:33N 37°48' W 122°24'0 0.0
2015-Aug-01 06:34N 37°48' W 122°24'1 1.5
2015-Aug-01 05:34N 37°47' W 122°22'4 4.2
2015-Aug-01 04:34N 37°44' W 122°19'6 5.6
2015-Aug-01 03:34N 37°48' W 122°24'0 0.0
2015-Aug-01 02:33N 37°48' W 122°24'1 1.0
2015-Aug-01 01:34N 37°48' W 122°23'1 1.0
2015-Aug-01 00:33N 37°48' W 122°24'0 0.0
2015-Jul-31 23:33N 37°48' W 122°24'0 0.0
2015-Jul-31 22:33N 37°48' W 122°24'0 0.0
2015-Jul-31 21:33N 37°48' W 122°24'0 0.0
2015-Jul-31 20:33N 37°48' W 122°24'5 4.8
2015-Jul-31 19:34N 37°44' W 122°20'5 4.8
2015-Jul-31 18:33N 37°48' W 122°24'1 0.6
2015-Jul-31 17:34N 37°48' W 122°23'1 0.6
2015-Jul-31 16:33N 37°48' W 122°24'0 0.0
2015-Jul-31 15:33N 37°48' W 122°24'1 0.6
2015-Jul-31 14:33N 37°48' W 122°23'1 0.6
2015-Jul-31 13:34N 37°48' W 122°24'0 0.0
2015-Jul-31 12:33N 37°48' W 122°24'0 0.0
2015-Jul-31 11:34N 37°48' W 122°24'0 0.0
2015-Jul-31 10:33N 37°48' W 122°24'0 0.0
2015-Jul-31 09:33N 37°48' W 122°24'0 0.0
2015-Jul-31 08:33N 37°48' W 122°24'0 0.0
2015-Jul-31 07:33N 37°48' W 122°24'0 0.0
2015-Jul-31 06:34N 37°48' W 122°24'0 0.0
2015-Jul-31 05:33N 37°48' W 122°24'0 0.0
2015-Jul-31 04:33N 37°48' W 122°24'0 0.0
2015-Jul-31 03:33N 37°48' W 122°24'4 3.6
2015-Jul-31 02:33N 37°45' W 122°21'4 3.6
2015-Jul-31 01:33N 37°48' W 122°24'0 0.0
2015-Jul-31 00:33N 37°48' W 122°24'0 0.0
2015-Jul-30 23:33N 37°48' W 122°24'0 0.0
2015-Jul-30 22:33N 37°48' W 122°24'0 0.0
2015-Jul-30 21:33N 37°48' W 122°24'0 0.0
2015-Jul-30 20:33N 37°48' W 122°24'3 2.7
2015-Jul-30 19:34N 37°49' W 122°27'3 2.7
2015-Jul-30 18:34N 37°48' W 122°24'0 0.0
2015-Jul-30 17:33N 37°48' W 122°24'1 1.1
2015-Jul-30 16:34N 37°49' W 122°23'1 1.1
2015-Jul-30 15:33N 37°48' W 122°24'0 0.4
2015-Jul-30 14:34N 37°48' W 122°23'0 0.2
2015-Jul-30 13:34N 37°48' W 122°23'0 0.3
2015-Jul-30 12:34N 37°48' W 122°24'0 0.0
2015-Jul-30 11:33N 37°48' W 122°24'4 3.8
2015-Jul-30 10:33N 37°49' W 122°28'3 2.7
2015-Jul-30 09:34N 37°49' W 122°25'1 1.5
2015-Jul-30 08:34N 37°48' W 122°24'0 0.0
2015-Jul-30 07:34N 37°48' W 122°24'4 3.9
2015-Jul-30 06:34N 37°45' W 122°21'4 3.9
2015-Jul-30 05:34N 37°48' W 122°24'0 0.0
2015-Jul-30 04:34N 37°48' W 122°24'0 0.0
2015-Jul-30 03:33N 37°48' W 122°24'0 0.0
2015-Jul-30 02:33N 37°48' W 122°24'5 5.0
2015-Jul-30 01:33N 37°44' W 122°20'5 5.0
2015-Jul-30 00:33N 37°48' W 122°24'0 0.0
2015-Jul-29 23:33N 37°48' W 122°24'0 0.0
2015-Jul-29 22:34N 37°48' W 122°24'0 0.0
2015-Jul-29 21:33N 37°48' W 122°24'0 0.0
2015-Jul-29 20:33N 37°48' W 122°24'2 2.4
2015-Jul-29 19:33N 37°47' W 122°21'4 3.6
2015-Jul-29 18:33N 37°49' W 122°25'7 7.5
2015-Jul-29 17:33N 37°47' W 122°34'8 7.9
2015-Jul-29 16:33N 37°51' W 122°25'3 3.0
2015-Jul-29 15:34N 37°48' W 122°24'5 5.5
2015-Jul-29 14:34N 37°43' W 122°20'5 5.0
2015-Jul-29 13:34N 37°48' W 122°22'2 1.5
2015-Jul-29 12:33N 37°48' W 122°24'1 0.7
2015-Jul-29 11:33N 37°48' W 122°23'1 0.7
2015-Jul-29 10:33N 37°48' W 122°24'0 0.0
2015-Jul-29 09:33N 37°48' W 122°24'3 2.6
2015-Jul-29 08:34N 37°48' W 122°21'3 2.6
2015-Jul-29 07:33N 37°48' W 122°24'0 0.0
2015-Jul-29 06:33N 37°48' W 122°24'0 0.0
2015-Jul-29 05:33N 37°48' W 122°24'0 0.0
2015-Jul-29 04:33N 37°48' W 122°24'8 7.6
2015-Jul-29 03:33N 37°47' W 122°33'1010.4
2015-Jul-29 02:33N 37°48' W 122°20'1414.4
2015-Jul-29 01:33N 37°46' W 122°38'1211.6
2015-Jul-29 00:33N 37°48' W 122°24'3 3.4
2015-Jul-28 23:34N 37°48' W 122°20'5 5.2
2015-Jul-28 22:34N 37°51' W 122°25'3 3.2
2015-Jul-28 21:34N 37°48' W 122°24'1 1.2
2015-Jul-28 20:34N 37°47' W 122°23'1 1.2
2015-Jul-28 19:34N 37°48' W 122°24'0 0.0
2015-Jul-28 18:34N 37°48' W 122°24'1 1.2
2015-Jul-28 17:33N 37°49' W 122°25'1 1.2
2015-Jul-28 16:33N 37°48' W 122°24'1 1.2
2015-Jul-28 15:33N 37°47' W 122°23'1 1.2
2015-Jul-28 14:33N 37°48' W 122°24'0 0.0
2015-Jul-28 13:33N 37°48' W 122°24'5 5.4
2015-Jul-28 12:34N 37°44' W 122°20'5 5.4
2015-Jul-28 11:33N 37°48' W 122°24'0 0.0
2015-Jul-28 10:33N 37°48' W 122°24'6 5.6
2015-Jul-28 09:33N 37°43' W 122°20'7 6.7
2015-Jul-28 08:34N 37°49' W 122°25'1 1.2
2015-Jul-28 07:34N 37°48' W 122°24'0 0.0
2015-Jul-28 06:34N 37°48' W 122°24'0 0.0
2015-Jul-28 05:34N 37°48' W 122°24'0 0.0
2015-Jul-28 04:34N 37°48' W 122°24'1010.5
2015-Jul-28 03:33N 37°46' W 122°37'1212.0
2015-Jul-28 02:33N 37°48' W 122°22'3 3.3
2015-Jul-28 01:33N 37°45' W 122°21'4 3.9
2015-Jul-28 00:33N 37°48' W 122°24'9 9.5
2015-Jul-27 23:34N 37°46' W 122°36'1211.7
2015-Jul-27 22:34N 37°47' W 122°21'1 1.4
2015-Jul-27 21:33N 37°48' W 122°20'3 3.3
2015-Jul-27 20:33N 37°48' W 122°24'4 3.8
2015-Jul-27 19:34N 37°45' W 122°21'4 3.8
2015-Jul-27 18:33N 37°48' W 122°24'0 0.0
2015-Jul-27 17:33N 37°48' W 122°24'0 0.0
2015-Jul-27 16:33N 37°48' W 122°24'0 0.0
2015-Jul-27 15:33N 37°48' W 122°24'0 0.0
2015-Jul-27 14:33N 37°48' W 122°24'1 1.2
2015-Jul-27 13:33N 37°49' W 122°25'1 1.2
2015-Jul-27 12:33N 37°48' W 122°24'3 2.5
2015-Jul-27 11:33N 37°46' W 122°21'3 2.5
2015-Jul-27 10:33N 37°48' W 122°24'0 0.0
2015-Jul-27 09:33N 37°48' W 122°24'3 3.1
2015-Jul-27 08:34N 37°46' W 122°21'3 3.2
2015-Jul-27 07:33N 37°48' W 122°24'0 0.0
2015-Jul-27 06:33N 37°48' W 122°24'0 0.0
2015-Jul-27 05:34N 37°48' W 122°24'0 0.0
2015-Jul-27 04:34N 37°48' W 122°24'2 2.4
2015-Jul-27 03:33N 37°48' W 122°21'1 1.5
2015-Jul-27 02:33N 37°46' W 122°21'2 1.9
2015-Jul-27 01:33N 37°48' W 122°21'1 0.9
2015-Jul-27 00:33N 37°48' W 122°23'0 0.4
2015-Jul-26 23:34N 37°48' W 122°23'1 0.6
2015-Jul-26 22:33N 37°48' W 122°24'0 0.0
2015-Jul-26 21:33N 37°48' W 122°24'0 0.2
2015-Jul-26 20:33N 37°48' W 122°24'0 0.2
2015-Jul-26 19:33N 37°48' W 122°24'0 0.0
2015-Jul-26 18:34N 37°48' W 122°24'3 3.4
2015-Jul-26 17:34N 37°48' W 122°20'4 4.2
2015-Jul-26 16:34N 37°44' W 122°21'5 5.0
2015-Jul-26 15:33N 37°48' W 122°24'0 0.0
2015-Jul-26 14:33N 37°48' W 122°24'5 4.9
2015-Jul-26 13:33N 37°44' W 122°20'5 4.6
2015-Jul-26 12:33N 37°49' W 122°20'3 2.9
2015-Jul-26 11:33N 37°48' W 122°24'3 3.3
2015-Jul-26 10:34N 37°46' W 122°21'3 3.3
2015-Jul-26 09:34N 37°48' W 122°24'0 0.0
2015-Jul-26 08:33N 37°48' W 122°24'2 1.8
2015-Jul-26 07:34N 37°47' W 122°22'2 2.4
2015-Jul-26 06:33N 37°45' W 122°20'4 4.1
2015-Jul-26 05:33N 37°48' W 122°24'0 0.0
2015-Jul-26 04:33N 37°48' W 122°24'0 0.0
2015-Jul-26 03:33N 37°48' W 122°24'3 2.7
2015-Jul-26 02:34N 37°47' W 122°21'3 2.7
2015-Jul-26 01:34N 37°48' W 122°24'0 0.0
2015-Jul-26 00:33N 37°48' W 122°24'4 4.5
2015-Jul-25 23:34N 37°48' W 122°18'2 2.5
2015-Jul-25 22:34N 37°46' W 122°20'3 3.1
2015-Jul-25 21:33N 37°48' W 122°23'2 2.0
2015-Jul-25 20:34N 37°48' W 122°21'3 2.5
2015-Jul-25 19:33N 37°48' W 122°24'3 3.2
2015-Jul-25 18:34N 37°49' W 122°20'3 3.2
2015-Jul-25 17:34N 37°48' W 122°24'0 0.0
2015-Jul-25 16:34N 37°48' W 122°24'0 0.0
2015-Jul-25 15:33N 37°48' W 122°24'4 3.7
2015-Jul-25 14:33N 37°49' W 122°19'4 3.7
2015-Jul-25 13:33N 37°48' W 122°24'3 2.6
2015-Jul-25 12:34N 37°46' W 122°21'1 0.7
2015-Jul-25 11:34N 37°47' W 122°22'2 1.9
2015-Jul-25 10:33N 37°48' W 122°24'0 0.0
2015-Jul-25 09:33N 37°48' W 122°24'0 0.0
2015-Jul-25 08:33N 37°48' W 122°24'1 1.2
2015-Jul-25 07:34N 37°49' W 122°25'3 3.1
2015-Jul-25 06:34N 37°49' W 122°29'4 4.0
2015-Jul-25 05:33N 37°48' W 122°24'1 0.6
2015-Jul-25 04:34N 37°48' W 122°23'1 0.6
2015-Jul-25 03:32N 37°48' W 122°24'0 0.0
2015-Jul-25 02:33N 37°48' W 122°24'0 0.0
2015-Jul-25 01:33N 37°48' W 122°24'0 0.0
2015-Jul-25 00:34N 37°48' W 122°24'7 6.7
2015-Jul-24 23:34N 37°42' W 122°19'7 6.6
2015-Jul-24 22:32N 37°48' W 122°24'8 8.0
2015-Jul-24 21:32N 37°47' W 122°34'8 8.3
2015-Jul-24 20:33N 37°48' W 122°24'0 0.2
2015-Jul-24 19:33N 37°48' W 122°24'0 0.0
2015-Jul-24 18:33N 37°48' W 122°24'3 2.9
2015-Jul-24 17:34N 37°47' W 122°20'3 2.9
2015-Jul-24 16:33N 37°48' W 122°24'1 0.6
2015-Jul-24 15:34N 37°49' W 122°24'4 3.9
2015-Jul-24 14:33N 37°46' W 122°21'2 2.1
2015-Jul-24 13:34N 37°48' W 122°21'3 2.6
2015-Jul-24 12:33N 37°48' W 122°24'0 0.0
2015-Jul-24 11:33N 37°48' W 122°24'4 3.8
2015-Jul-24 10:33N 37°49' W 122°19'6 6.4
2015-Jul-24 09:34N 37°43' W 122°20'6 6.3
2015-Jul-24 08:33N 37°48' W 122°24'2 2.4
2015-Jul-24 07:34N 37°48' W 122°21'2 2.4
2015-Jul-24 06:33N 37°48' W 122°24'0 0.0
2015-Jul-24 05:33N 37°48' W 122°24'4 3.6
2015-Jul-24 04:34N 37°48' W 122°19'2 2.2
2015-Jul-24 03:34N 37°46' W 122°21'2 1.5
2015-Jul-24 02:33N 37°45' W 122°20'  

Dump ship's entire track history